Stations météo

réclame
Mon MeteoGroup
Carrion de los Condes, Espagne (8068): Température de l'air & dewpoint: 18.02.2018 23:00:00 - 24.02.2018 23:00:00 (CET)Carrion de los Condes, Espagne (8068): Vitesse du vent & gusts: 18.02.2018 23:00:00 - 24.02.2018 23:00:00 (CET)Carrion de los Condes, Espagne (8068): Direction du vent: 18.02.2018 23:00:00 - 24.02.2018 23:00:00 (CET)Carrion de los Condes, Espagne (8068): visibility: 18.02.2018 23:00:00 - 24.02.2018 23:00:00 (CET)Carrion de los Condes, Espagne (8068): Ensoleillement: 18.02.2018 23:00:00 - 24.02.2018 23:00:00 (CET)Carrion de los Condes, Espagne (8068): Quantités de précipitations: 18.02.2018 23:00:00 - 24.02.2018 23:00:00 (CET)
Date & Time tt [°C] td [°C] ff [km/h] ff [knt] fx [km/h] fx [knt] dd vv [km] sd [min] rr [mm]
24.02.2018 23:00:00 - - - - - - - - - -
24.02.2018 22:00:00 -0,2 -6,0 4 2 14 8 ENE 20 0 0,0
24.02.2018 21:00:00 0,8 -6,7 3 2 17 9 NE 20 0 0,0
24.02.2018 20:00:00 2,0 -6,7 1 1 2 1 N 20 0 0,0
24.02.2018 19:00:00 6,0 -9,4 0 0 7 4 N 20 0 -
24.02.2018 18:00:00 9,7 -13,3 3 2 10 5 WSW 20 55 0,0
24.02.2018 17:00:00 11,1 -11,7 2 1 13 7 W 20 60 0,0
24.02.2018 16:00:00 11,3 -12,2 5 3 16 9 SSW 20 60 0,0
24.02.2018 15:00:00 10,8 -10,8 6 3 16 9 SSW 20 60 0,0
24.02.2018 14:00:00 9,3 -8,6 5 3 15 8 SSW 20 60 0,0
24.02.2018 13:00:00 7,6 -7,1 5 3 14 7 W 19 60 -
24.02.2018 12:00:00 5,2 -4,8 4 2 10 5 S 20 60 0,0
24.02.2018 11:00:00 2,0 -4,2 5 3 11 6 ESE 20 59 0,0
24.02.2018 10:00:00 -0,7 -5,1 1 1 5 3 S 18 60 0,0
24.02.2018 09:00:00 -5,7 -6,4 1 1 4 2 W 20 34 0,0
24.02.2018 08:00:00 -8,7 -10,3 1 1 5 3 W 18 0 0,0
24.02.2018 07:00:00 -8,3 -9,9 0 0 7 4 N 20 0 -
24.02.2018 06:00:00 -8,6 -10,3 1 1 3 2 NE 20 0 0,0
24.02.2018 05:00:00 -8,1 -9,9 1 1 3 2 NNW 20 0 0,0
24.02.2018 04:00:00 -7,9 -9,9 0 0 3 1 N 20 0 0,0
24.02.2018 03:00:00 -7,3 -9,0 0 0 14 8 N 20 0 0,0
24.02.2018 02:00:00 -7,3 -9,4 0 0 3 1 N 20 0 0,0
24.02.2018 01:00:00 -6,4 -8,6 0 0 3 2 N 20 0 -
24.02.2018 00:00:00 -5,8 -8,2 2 1 4 2 NNE 20 0 0,0
23.02.2018 23:00:00 -4,6 -8,6 2 1 4 2 NNW 20 0 0,0
23.02.2018 22:00:00 -3,7 -9,0 1 1 8 4 E 20 0 0,0
23.02.2018 21:00:00 -2,0 -9,0 3 2 9 5 NE 20 0 0,0
23.02.2018 20:00:00 0,4 -7,8 0 0 3 2 N 20 0 0,0
23.02.2018 19:00:00 4,4 -9,9 1 1 10 5 W 20 0 -
23.02.2018 18:00:00 7,8 -11,2 4 2 12 6 SW 20 48 0,0
23.02.2018 17:00:00 8,5 -11,7 5 3 14 7 W 20 60 0,0
23.02.2018 16:00:00 8,2 -11,2 4 2 15 8 NNE 20 60 0,0
23.02.2018 15:00:00 8,0 -10,8 5 3 14 8 ESE 20 60 0,0
23.02.2018 14:00:00 7,0 -10,3 5 3 17 9 SE 20 60 0,0
23.02.2018 13:00:00 5,3 -10,3 8 4 20 11 ENE 20 60 -
23.02.2018 12:00:00 4,3 -8,2 5 3 21 11 ENE 20 60 0,0
23.02.2018 11:00:00 2,0 -5,7 6 3 16 8 NE 20 58 0,0
23.02.2018 10:00:00 0,0 -6,4 6 3 - - NNE 20 - -
23.02.2018 09:00:00 -3,3 -8,2 6 3 15 8 N 20 32 0,0
23.02.2018 08:00:00 -6,8 -9,0 4 2 11 6 WNW 17 0 0,0
23.02.2018 07:00:00 -6,6 -8,6 6 3 11 6 NNW 15 0 -
23.02.2018 06:00:00 -7,1 -9,0 5 3 11 6 NW 11 0 0,0
23.02.2018 05:00:00 -7,5 -9,0 5 3 6 4 NW 12 0 0,0
23.02.2018 04:00:00 -7,5 -9,4 1 1 5 3 ENE 10 0 0,0
23.02.2018 03:00:00 -6,9 -9,0 1 1 5 3 NW 12 0 0,0
23.02.2018 02:00:00 -5,6 -8,6 2 1 8 5 SSE 14 0 0,0
23.02.2018 01:00:00 -4,6 -8,2 3 1 11 6 ENE 16 0 -
23.02.2018 00:00:00 -3,7 -7,5 4 2 17 9 ENE 15 0 0,0
22.02.2018 23:00:00 -2,3 -6,4 8 4 17 9 E 15 0 0,0
22.02.2018 22:00:00 -1,5 -6,4 6 3 25 14 E 15 0 0,0
22.02.2018 21:00:00 0,2 -6,7 8 4 22 12 E 20 0 0,0
22.02.2018 20:00:00 0,9 -6,7 11 6 24 13 NE 20 0 0,0
22.02.2018 19:00:00 2,4 -7,5 9 5 35 19 ENE 20 0 -
22.02.2018 18:00:00 4,3 -8,2 15 8 34 19 NE 20 51 0,0
22.02.2018 17:00:00 5,6 -7,5 17 9 44 24 NE 20 60 0,0
22.02.2018 16:00:00 6,1 -6,7 14 8 41 22 NE 20 60 0,0
22.02.2018 15:00:00 6,1 -5,7 14 7 36 19 ENE 20 60 0,0
22.02.2018 14:00:00 5,8 -5,4 14 8 37 20 ENE 20 60 0,0
22.02.2018 13:00:00 5,4 -5,1 16 8 38 20 NE 20 60 -
22.02.2018 12:00:00 4,7 -3,9 14 7 28 15 NE 20 60 0,0
22.02.2018 11:00:00 3,4 -4,2 6 3 19 10 NE 20 59 0,0
22.02.2018 10:00:00 0,5 -4,5 9 5 23 12 NNW 20 60 0,0
22.02.2018 09:00:00 -1,8 -6,7 13 7 24 13 NNW 20 32 0,0
22.02.2018 08:00:00 -2,1 -6,7 8 4 25 13 NNW 20 0 0,0
22.02.2018 07:00:00 -0,8 -6,0 14 7 29 15 NNE 20 0 -
22.02.2018 06:00:00 -1,4 -5,7 7 4 23 12 N 20 0 0,0
22.02.2018 05:00:00 -1,2 -5,4 6 4 29 16 NE 20 0 0,0
22.02.2018 04:00:00 -1,1 -4,8 9 5 29 16 ENE 20 0 0,0
22.02.2018 03:00:00 -0,6 -4,5 12 6 25 13 ENE 20 0 0,0
22.02.2018 02:00:00 -0,8 -4,8 8 4 35 19 E 20 0 0,0
22.02.2018 01:00:00 -0,9 -5,4 15 8 34 19 NNE 20 0 -
22.02.2018 00:00:00 -1,3 -4,8 7 4 24 13 NE 20 0 0,0
21.02.2018 23:00:00 -0,6 -4,8 10 6 28 15 NNE 20 0 0,0
21.02.2018 22:00:00 -0,5 -3,6 4 2 27 15 NNW 20 0 0,0
21.02.2018 21:00:00 0,6 -3,6 13 7 35 19 NNE 20 0 0,0
21.02.2018 20:00:00 1,3 -3,9 12 6 33 18 NE 20 0 0,0
21.02.2018 19:00:00 2,7 -2,2 10 6 50 27 ENE 20 0 -
21.02.2018 18:00:00 4,5 -1,4 21 12 54 29 NE 20 50 0,0
21.02.2018 17:00:00 6,6 -1,0 19 10 49 26 NE 20 60 0,0
21.02.2018 16:00:00 7,4 -0,7 19 11 50 27 NE 20 60 0,0
21.02.2018 15:00:00 8,1 -0,5 19 10 43 23 ENE 20 58 0,0
21.02.2018 14:00:00 6,7 -0,3 16 8 38 20 NE 20 34 0,0
21.02.2018 13:00:00 7,0 0,0 15 8 34 18 NE 20 44 -
21.02.2018 12:00:00 6,9 -1,4 14 8 39 21 NNE 20 58 0,0
21.02.2018 11:00:00 6,7 -2,2 16 9 45 25 NNE 20 60 0,0
21.02.2018 10:00:00 4,6 -2,5 16 9 40 22 NNE 20 60 0,0
21.02.2018 09:00:00 2,8 -3,0 24 13 54 29 NNE 20 34 0,0
21.02.2018 08:00:00 1,4 -1,4 15 8 37 20 NE 20 0 0,0
21.02.2018 07:00:00 -0,7 -2,7 7 4 15 8 N 20 0 -
21.02.2018 06:00:00 1,6 -1,7 5 3 25 14 W 20 0 0,0
21.02.2018 05:00:00 -1,1 -1,7 4 2 10 5 NE 20 0 0,0
21.02.2018 04:00:00 -1,8 -2,5 2 1 9 5 N 20 0 0,0
21.02.2018 03:00:00 -2,0 -2,5 1 1 8 5 NNE 20 0 0,0
21.02.2018 02:00:00 -1,4 -2,2 1 1 6 3 NNW 20 0 0,0
21.02.2018 01:00:00 -1,3 -3,0 2 1 13 7 W 20 0 -
21.02.2018 00:00:00 -0,2 -2,2 2 1 5 3 WNW 20 0 0,0
20.02.2018 23:00:00 2,1 -1,0 2 1 13 7 NW 20 0 0,0
20.02.2018 22:00:00 4,4 0,6 4 2 15 8 N 20 0 0,0
20.02.2018 21:00:00 5,2 0,9 6 4 17 9 NE 20 0 0,0
20.02.2018 20:00:00 6,1 0,4 7 4 33 18 NE 20 0 0,0
20.02.2018 19:00:00 7,5 0,2 13 7 37 20 NE 20 0 -
20.02.2018 18:00:00 9,6 0,6 16 9 46 25 NNE 20 50 0,0
20.02.2018 17:00:00 11,4 0,4 19 10 47 26 NNE 20 60 0,0
20.02.2018 16:00:00 12,3 0,6 21 11 61 33 NNE 20 60 0,0
20.02.2018 15:00:00 11,9 0,6 15 8 37 20 NNE 20 56 0,0
20.02.2018 14:00:00 11,4 0,2 23 12 41 22 NNE 20 60 0,0
20.02.2018 13:00:00 10,5 2,1 9 5 22 12 NW 20 60 -
20.02.2018 12:00:00 8,8 2,7 7 4 - - N 20 - -
20.02.2018 11:00:00 7,0 3,2 4 2 9 5 SE 20 2 0,0
20.02.2018 10:00:00 4,3 3,8 3 2 - - SSE 20 - -
20.02.2018 09:00:00 2,4 1,9 2 1 10 5 ENE 20 0 0,0
20.02.2018 08:00:00 1,2 0,9 1 1 5 3 WSW 20 0 0,0
20.02.2018 07:00:00 0,3 0,0 3 1 5 3 W 20 0 -
20.02.2018 06:00:00 0,2 -0,3 3 1 7 4 NNW 20 0 0,0
20.02.2018 05:00:00 0,5 -0,3 2 1 6 3 NE 20 0 0,0
20.02.2018 04:00:00 1,4 0,6 3 2 10 6 NNW 20 0 0,0
20.02.2018 03:00:00 2,2 1,3 1 1 5 3 NNE 20 0 0,0
20.02.2018 02:00:00 2,6 1,5 3 1 6 4 SSW 20 0 0,0
20.02.2018 01:00:00 3,7 1,9 2 1 4 2 W 20 0 -
20.02.2018 00:00:00 4,5 2,5 2 1 5 3 N 20 0 0,0
19.02.2018 23:00:00 4,6 2,3 1 1 4 2 NW 20 0 0,0
19.02.2018 22:00:00 5,6 2,9 2 1 4 2 NNE 20 0 0,0
19.02.2018 21:00:00 6,6 2,9 2 1 5 3 W 20 0 0,0
19.02.2018 20:00:00 8,1 3,0 0 0 10 5 N 20 0 0,0
19.02.2018 19:00:00 9,3 3,0 4 2 14 7 NNE 20 0 -
19.02.2018 18:00:00 11,2 1,9 2 1 8 4 N 20 35 0,0
19.02.2018 17:00:00 11,4 2,7 2 1 8 4 WNW 20 6 0,0
19.02.2018 16:00:00 11,2 1,1 2 1 10 5 NNW 20 0 0,0
19.02.2018 15:00:00 11,1 1,9 4 2 12 6 WNW 20 0 0,0
19.02.2018 14:00:00 10,2 2,5 4 2 13 7 W 20 0 0,0
19.02.2018 13:00:00 9,3 2,7 3 2 12 6 NW 20 0 -
19.02.2018 12:00:00 - - - - - - - - - -
19.02.2018 11:00:00 6,7 3,2 3 2 9 5 W 20 42 0,0
19.02.2018 10:00:00 4,3 3,4 3 2 6 4 WSW 20 0 0,0
19.02.2018 09:00:00 2,6 1,9 0 0 4 2 N 20 0 0,0
19.02.2018 08:00:00 2,3 1,3 0 0 3 2 N 20 0 0,0
19.02.2018 07:00:00 3,1 1,3 0 0 3 1 N 20 0 -
19.02.2018 06:00:00 3,9 2,1 1 1 6 3 WNW 20 0 0,0
19.02.2018 05:00:00 4,2 1,9 2 1 14 8 S 20 0 0,0
19.02.2018 04:00:00 4,3 2,1 4 2 9 5 SSW 20 0 0,0
19.02.2018 03:00:00 3,7 1,9 2 1 7 4 S 20 0 0,0
19.02.2018 02:00:00 3,4 1,5 3 2 8 5 SSE 20 0 0,0
19.02.2018 01:00:00 3,9 1,3 3 2 - - SSW 20 - -
19.02.2018 00:00:00 4,7 1,9 0 0 4 2 N 20 0 0,0
18.02.2018 23:00:00 5,5 1,7 1 1 18 10 E 20 0 0,0

tt = Température de l'air
td = dewpoint
ff = Vitesse du vent
fx = gusts
dd = Direction du vent
vv = visibility
sd = Ensoleillement
rr = Quantités de précipitations

stations d'obs. à proximité